CA22 weather

Lauppes Strip
Sacramento, California, United States

Public forecast

Using degrees Fahrenheit for public forecast. Weather courtesy of forecast.io.

Closest aviation weather report (METAR) to Lauppes Strip

Closest report is Sacramento International Airport, 3.8 nm (7.1 km) S. Retrieved 2019/12/14 11:53 UTC (47 minutes ago):

KSMF 141153Z 19005KT 10SM BKN250 10/09 A3002 RMK AO2 SLP166 70003 T01000089 10122 20100 50002

Closest aviation forecast (TAF) to Lauppes Strip

Closest forecast is Sacramento International Airport, 3.8 nm (7.1 km) S. Retrieved 2019/12/14 12:27 UTC (13 minutes ago):

TAF KSMF 141125Z 1412/1512 VRB04KT P6SM SCT250 FM150200 VRB05KT P6SM VCSH BKN050